createdAt,value
2022-12-31T00:00:21.247Z,14.57
2022-12-31T00:02:21.258Z,14.51
2022-12-31T00:03:21.293Z,14.54
2022-12-31T00:04:21.128Z,14.54
2022-12-31T00:05:21.132Z,14.55
2022-12-31T00:06:21.102Z,14.47
2022-12-31T00:07:21.091Z,14.46
2022-12-31T00:08:21.074Z,14.50
2022-12-31T00:09:21.065Z,14.40
2022-12-31T00:10:21.053Z,14.42
2022-12-31T00:11:21.042Z,14.43
2022-12-31T00:12:21.021Z,14.43
2022-12-31T00:13:21.008Z,14.40
2022-12-31T00:14:21.008Z,14.42
2022-12-31T00:15:20.982Z,14.37
2022-12-31T00:16:21.067Z,14.45
2022-12-31T00:17:20.954Z,14.40
2022-12-31T00:18:20.943Z,14.45
2022-12-31T00:19:20.928Z,14.55
2022-12-31T00:20:20.923Z,14.57
2022-12-31T00:21:20.907Z,14.57
2022-12-31T00:22:20.893Z,14.62
2022-12-31T00:23:20.883Z,14.61
2022-12-31T00:24:20.858Z,14.58
2022-12-31T00:25:20.859Z,14.61
2022-12-31T00:26:20.839Z,14.61
2022-12-31T00:27:20.938Z,14.62
2022-12-31T00:28:20.807Z,14.61
2022-12-31T00:29:20.811Z,14.64
2022-12-31T00:30:20.777Z,14.69
2022-12-31T00:31:20.853Z,14.73
2022-12-31T00:32:20.779Z,14.76
2022-12-31T00:33:20.739Z,14.69
2022-12-31T00:34:20.723Z,14.65
2022-12-31T00:35:20.715Z,14.68
2022-12-31T00:36:20.701Z,14.68
2022-12-31T00:37:20.686Z,14.65
2022-12-31T00:38:20.669Z,14.65
2022-12-31T00:39:20.658Z,14.62
2022-12-31T00:40:20.658Z,14.68
2022-12-31T00:41:20.636Z,14.62
2022-12-31T00:42:20.616Z,14.64
2022-12-31T00:43:20.605Z,14.69
2022-12-31T00:44:20.609Z,14.64
2022-12-31T00:45:20.583Z,14.65
2022-12-31T00:46:20.681Z,14.73
2022-12-31T00:47:20.556Z,14.72
2022-12-31T00:48:20.558Z,14.70
2022-12-31T00:49:20.531Z,14.73
2022-12-31T00:50:20.522Z,14.72
2022-12-31T00:51:20.495Z,14.70
2022-12-31T00:52:20.484Z,14.73
2022-12-31T00:53:20.477Z,14.73
2022-12-31T00:54:20.466Z,14.82
2022-12-31T00:55:20.443Z,14.80
2022-12-31T00:56:20.438Z,14.83
2022-12-31T00:57:20.415Z,14.79
2022-12-31T00:58:20.401Z,14.80
2022-12-31T00:59:20.398Z,14.77
2022-12-31T01:00:20.379Z,14.79
2022-12-31T01:01:20.560Z,14.83
2022-12-31T01:02:20.570Z,14.88
2022-12-31T01:03:20.374Z,14.95
2022-12-31T01:04:20.351Z,14.98
2022-12-31T01:05:20.310Z,14.98
2022-12-31T01:06:20.306Z,15.02
2022-12-31T01:07:20.282Z,15.06
2022-12-31T01:08:20.267Z,15.09
2022-12-31T01:09:20.257Z,15.05
2022-12-31T01:10:20.241Z,15.06
2022-12-31T01:11:20.241Z,15.13
2022-12-31T01:12:20.217Z,15.08
2022-12-31T01:13:20.204Z,15.09
2022-12-31T01:14:20.187Z,15.06
2022-12-31T01:15:20.177Z,15.19
2022-12-31T01:16:20.161Z,15.20
2022-12-31T01:17:20.153Z,15.20
2022-12-31T01:18:20.133Z,15.19
2022-12-31T01:19:20.126Z,15.20
2022-12-31T01:20:20.133Z,15.16
2022-12-31T01:21:20.103Z,15.19
2022-12-31T01:22:20.081Z,15.18
2022-12-31T01:23:20.068Z,15.22
2022-12-31T01:24:20.066Z,15.20
2022-12-31T01:25:20.046Z,15.18
2022-12-31T01:26:20.032Z,15.27
2022-12-31T01:27:20.027Z,15.24
2022-12-31T01:28:20.001Z,15.20
2022-12-31T01:29:20.000Z,15.24
2022-12-31T01:30:19.978Z,15.27
2022-12-31T01:31:20.073Z,15.28
2022-12-31T01:32:19.952Z,15.26
2022-12-31T01:33:19.936Z,15.30
2022-12-31T01:34:19.922Z,15.38
2022-12-31T01:35:19.910Z,15.37
2022-12-31T01:36:25.273Z,15.33
2022-12-31T01:37:21.882Z,15.37
2022-12-31T01:38:19.868Z,15.34
2022-12-31T01:39:19.859Z,15.37
2022-12-31T01:40:19.850Z,15.34
2022-12-31T01:41:19.851Z,15.34
2022-12-31T01:42:19.816Z,15.37
2022-12-31T01:43:19.805Z,15.31
2022-12-31T01:44:19.792Z,15.27
2022-12-31T01:45:19.779Z,15.26
2022-12-31T01:46:19.785Z,15.26
2022-12-31T01:47:19.751Z,15.35
2022-12-31T01:48:19.742Z,15.34
2022-12-31T01:49:19.729Z,15.31
2022-12-31T01:50:19.713Z,15.33
2022-12-31T01:51:19.699Z,15.40
2022-12-31T01:52:19.713Z,15.37
2022-12-31T01:53:19.691Z,15.40
2022-12-31T01:54:19.660Z,15.34
2022-12-31T01:55:19.649Z,15.35
2022-12-31T01:56:19.634Z,15.34
2022-12-31T01:57:19.630Z,15.34
2022-12-31T01:58:19.620Z,15.31
2022-12-31T01:59:19.600Z,15.35
2022-12-31T02:00:19.581Z,15.35
2022-12-31T02:01:19.718Z,15.42
2022-12-31T02:02:19.702Z,15.40
2022-12-31T02:03:19.604Z,15.46
2022-12-31T02:04:19.527Z,15.50
2022-12-31T02:05:19.539Z,15.49
2022-12-31T02:06:19.502Z,15.51
2022-12-31T02:07:19.490Z,15.51
2022-12-31T02:08:19.500Z,15.57
2022-12-31T02:09:19.469Z,15.62
2022-12-31T02:10:19.464Z,15.57
2022-12-31T02:11:19.437Z,15.57
2022-12-31T02:12:19.423Z,15.54
2022-12-31T02:13:19.411Z,15.50
2022-12-31T02:14:19.400Z,15.53
2022-12-31T02:15:19.387Z,15.56
2022-12-31T02:16:19.435Z,15.64
2022-12-31T02:17:19.359Z,15.68
2022-12-31T02:18:19.345Z,15.71
2022-12-31T02:19:19.336Z,15.74
2022-12-31T02:20:19.315Z,15.74
2022-12-31T02:21:19.309Z,15.67
2022-12-31T02:22:19.301Z,15.69
2022-12-31T02:23:19.283Z,15.72
2022-12-31T02:24:19.294Z,15.74
2022-12-31T02:25:19.255Z,15.76
2022-12-31T02:26:19.252Z,15.72
2022-12-31T02:27:19.234Z,15.74
2022-12-31T02:28:19.215Z,15.78
2022-12-31T02:29:19.204Z,15.89
2022-12-31T02:30:19.188Z,15.87
2022-12-31T02:31:19.208Z,15.84
2022-12-31T02:32:19.164Z,15.89
2022-12-31T02:33:19.148Z,15.92
2022-12-31T02:34:19.135Z,16.01
2022-12-31T02:35:19.129Z,16.00
2022-12-31T02:36:19.108Z,16.01
2022-12-31T02:37:19.093Z,16.00
2022-12-31T02:38:19.092Z,16.00
2022-12-31T02:39:19.075Z,16.02
2022-12-31T02:40:19.084Z,16.04
2022-12-31T02:41:19.043Z,16.01
2022-12-31T02:42:19.029Z,16.01
2022-12-31T02:43:19.015Z,16.01
2022-12-31T02:44:19.037Z,16.02
2022-12-31T02:45:18.991Z,16.09
2022-12-31T02:46:19.038Z,16.09
2022-12-31T02:47:18.966Z,16.02
2022-12-31T02:48:18.953Z,16.00
2022-12-31T02:49:18.942Z,15.97
2022-12-31T02:50:18.922Z,16.00
2022-12-31T02:51:18.922Z,16.05
2022-12-31T02:52:18.900Z,16.12
2022-12-31T02:53:18.902Z,16.05
2022-12-31T02:54:18.873Z,16.08
2022-12-31T02:55:18.862Z,16.07
2022-12-31T02:56:18.866Z,16.05
2022-12-31T02:57:18.830Z,16.05
2022-12-31T02:58:18.816Z,16.05
2022-12-31T02:59:18.830Z,16.08
2022-12-31T03:00:18.795Z,16.11
2022-12-31T03:01:18.945Z,16.15
2022-12-31T03:02:18.931Z,16.17
2022-12-31T03:03:18.756Z,16.17
2022-12-31T03:04:18.740Z,16.24
2022-12-31T03:05:18.732Z,16.27
2022-12-31T03:06:18.715Z,16.37
2022-12-31T03:07:18.719Z,16.32
2022-12-31T03:08:18.692Z,16.29
2022-12-31T03:09:18.675Z,16.32
2022-12-31T03:10:18.663Z,16.33
2022-12-31T03:11:18.650Z,16.29
2022-12-31T03:12:18.662Z,16.34
2022-12-31T03:13:18.628Z,16.33
2022-12-31T03:14:18.606Z,16.34
2022-12-31T03:15:18.599Z,16.34
2022-12-31T03:16:18.652Z,16.40
2022-12-31T03:17:18.570Z,16.40
2022-12-31T03:18:18.557Z,16.38
2022-12-31T03:19:18.548Z,16.38
2022-12-31T03:20:18.530Z,16.38
2022-12-31T03:21:18.518Z,16.38
2022-12-31T03:22:18.503Z,16.33
2022-12-31T03:23:18.491Z,16.42
2022-12-31T03:24:18.475Z,16.42
2022-12-31T03:25:18.469Z,16.41
2022-12-31T03:26:18.452Z,16.37
2022-12-31T03:27:18.439Z,16.34
2022-12-31T03:28:18.457Z,16.37
2022-12-31T03:29:18.413Z,16.34
2022-12-31T03:30:18.398Z,16.37
2022-12-31T03:31:18.473Z,16.33
2022-12-31T03:32:18.378Z,16.34
2022-12-31T03:33:18.357Z,16.40
2022-12-31T03:34:18.345Z,16.32
2022-12-31T03:35:18.334Z,16.34
2022-12-31T03:36:18.319Z,16.34
2022-12-31T03:37:18.309Z,16.37
2022-12-31T03:38:18.294Z,16.34
2022-12-31T03:39:18.280Z,16.33
2022-12-31T03:40:18.267Z,16.27
2022-12-31T03:41:18.266Z,16.30
2022-12-31T03:42:18.241Z,16.30
2022-12-31T03:43:18.230Z,16.34
2022-12-31T03:44:18.240Z,16.41
2022-12-31T03:45:18.205Z,16.38
2022-12-31T03:46:18.363Z,16.32
2022-12-31T03:47:18.185Z,16.34
2022-12-31T03:48:18.161Z,16.38
2022-12-31T03:49:18.148Z,16.41
2022-12-31T03:50:18.135Z,16.34
2022-12-31T03:51:18.132Z,16.32
2022-12-31T03:52:18.108Z,16.33
2022-12-31T03:53:18.106Z,16.30
2022-12-31T03:54:18.085Z,16.33
2022-12-31T03:55:18.077Z,16.29
2022-12-31T03:56:18.056Z,16.29
2022-12-31T03:57:18.052Z,16.26
2022-12-31T03:58:18.028Z,16.22
2022-12-31T03:59:18.016Z,16.20
2022-12-31T04:00:18.039Z,16.14
2022-12-31T04:01:18.120Z,16.14
2022-12-31T04:03:18.024Z,16.15
2022-12-31T04:04:17.948Z,16.09
2022-12-31T04:05:17.936Z,16.04
2022-12-31T04:06:17.923Z,16.11
2022-12-31T04:07:17.923Z,16.08
2022-12-31T04:08:17.898Z,16.08
2022-12-31T04:09:17.882Z,16.05
2022-12-31T04:10:17.881Z,16.07
2022-12-31T04:11:20.958Z,16.05
2022-12-31T04:12:17.846Z,16.07
2022-12-31T04:13:17.843Z,16.12
2022-12-31T04:14:17.819Z,16.08
2022-12-31T04:15:17.804Z,16.04
2022-12-31T04:16:17.860Z,16.07
2022-12-31T04:17:17.779Z,16.09
2022-12-31T04:18:17.766Z,16.12
2022-12-31T04:19:17.752Z,16.14
2022-12-31T04:20:17.741Z,16.15
2022-12-31T04:21:17.726Z,16.14
2022-12-31T04:22:17.713Z,16.12
2022-12-31T04:23:17.702Z,16.19
2022-12-31T04:24:17.688Z,16.20
2022-12-31T04:25:17.673Z,16.24
2022-12-31T04:26:17.662Z,16.23
2022-12-31T04:27:17.647Z,16.27
2022-12-31T04:28:17.642Z,16.32
2022-12-31T04:29:17.623Z,16.32
2022-12-31T04:30:17.609Z,16.34
2022-12-31T04:31:17.603Z,16.37
2022-12-31T04:32:17.621Z,16.32
2022-12-31T04:33:17.568Z,16.34
2022-12-31T04:34:17.557Z,16.37
2022-12-31T04:35:17.555Z,16.33
2022-12-31T04:36:17.535Z,16.32
2022-12-31T04:37:17.518Z,16.32
2022-12-31T04:38:17.508Z,16.37
2022-12-31T04:39:17.488Z,16.51
2022-12-31T04:40:17.478Z,16.60
2022-12-31T04:41:17.467Z,16.52
2022-12-31T04:42:17.454Z,16.55
2022-12-31T04:43:17.436Z,16.57
2022-12-31T04:44:17.423Z,16.51
2022-12-31T04:45:17.409Z,16.57
2022-12-31T04:46:17.469Z,16.60
2022-12-31T04:47:23.261Z,16.62
2022-12-31T04:48:19.395Z,16.63
2022-12-31T04:49:17.355Z,16.65
2022-12-31T04:50:17.344Z,16.66
2022-12-31T04:51:17.331Z,16.63
2022-12-31T04:52:17.329Z,16.65
2022-12-31T04:53:17.303Z,16.66
2022-12-31T04:54:17.292Z,16.65
2022-12-31T04:55:17.277Z,16.59
2022-12-31T04:56:17.267Z,16.67
2022-12-31T04:57:17.251Z,16.75
2022-12-31T04:59:17.224Z,16.87
2022-12-31T05:00:17.213Z,16.84
2022-12-31T05:01:17.375Z,16.87
2022-12-31T05:02:17.472Z,16.97
2022-12-31T05:03:17.183Z,17.01
2022-12-31T05:04:17.191Z,17.01
2022-12-31T05:05:17.145Z,17.04
2022-12-31T05:06:17.133Z,17.08
2022-12-31T05:07:17.119Z,17.06
2022-12-31T05:08:17.118Z,17.06
2022-12-31T05:09:17.093Z,17.00
2022-12-31T05:10:17.084Z,17.01
2022-12-31T05:11:17.068Z,17.07
2022-12-31T05:12:17.051Z,17.11
2022-12-31T05:13:17.047Z,17.07
2022-12-31T05:14:17.033Z,17.15
2022-12-31T05:15:17.023Z,17.15
2022-12-31T05:16:17.076Z,17.08
2022-12-31T05:17:16.987Z,17.04
2022-12-31T05:18:16.982Z,17.03
2022-12-31T05:19:16.982Z,17.00
2022-12-31T05:20:16.988Z,17.03
2022-12-31T05:21:16.935Z,17.04
2022-12-31T05:22:16.927Z,17.01
2022-12-31T05:23:16.913Z,17.00
2022-12-31T05:24:16.895Z,17.03
2022-12-31T05:25:16.885Z,17.12
2022-12-31T05:26:16.869Z,17.15
2022-12-31T05:27:16.853Z,17.21
2022-12-31T05:28:16.843Z,17.15
2022-12-31T05:29:16.832Z,17.18
2022-12-31T05:30:16.823Z,17.14
2022-12-31T05:31:16.855Z,17.07
2022-12-31T05:32:16.795Z,17.08
2022-12-31T05:33:16.773Z,17.12
2022-12-31T05:34:16.761Z,17.08
2022-12-31T05:35:16.757Z,17.07
2022-12-31T05:36:16.765Z,17.12
2022-12-31T05:37:16.722Z,17.08
2022-12-31T05:38:16.709Z,17.07
2022-12-31T05:39:16.699Z,17.04
2022-12-31T05:40:16.687Z,17.04
2022-12-31T05:41:16.668Z,17.03
2022-12-31T05:42:16.658Z,17.06
2022-12-31T05:43:16.640Z,17.06
2022-12-31T05:44:16.627Z,17.04
2022-12-31T05:45:16.622Z,17.07
2022-12-31T05:46:16.636Z,17.07
2022-12-31T05:47:16.590Z,17.08
2022-12-31T05:48:16.576Z,17.04
2022-12-31T05:49:16.582Z,17.04
2022-12-31T05:50:16.549Z,17.03
2022-12-31T05:51:16.536Z,17.08
2022-12-31T05:52:16.552Z,17.08
2022-12-31T05:53:16.516Z,17.00
2022-12-31T05:54:16.506Z,17.06
2022-12-31T05:55:16.485Z,17.01
2022-12-31T05:56:16.470Z,17.03
2022-12-31T05:57:16.462Z,17.03
2022-12-31T05:58:16.447Z,17.00
2022-12-31T05:59:16.431Z,16.91
2022-12-31T06:00:16.421Z,16.91
2022-12-31T06:01:16.470Z,16.98
2022-12-31T06:02:16.428Z,17.04
2022-12-31T06:03:16.455Z,17.06
2022-12-31T06:04:16.364Z,17.03
2022-12-31T06:05:19.726Z,17.06
2022-12-31T06:06:16.340Z,17.03
2022-12-31T06:07:16.323Z,17.00
2022-12-31T06:08:16.346Z,17.06
2022-12-31T06:09:16.295Z,17.11
2022-12-31T06:10:16.282Z,17.01
2022-12-31T06:11:16.268Z,17.00
2022-12-31T06:12:16.261Z,16.96
2022-12-31T06:13:16.241Z,16.91
2022-12-31T06:14:16.229Z,17.01
2022-12-31T06:15:16.216Z,17.03
2022-12-31T06:16:16.301Z,16.97
2022-12-31T06:17:16.188Z,16.88
2022-12-31T06:18:16.177Z,16.85
2022-12-31T06:19:16.179Z,16.91
2022-12-31T06:20:16.148Z,16.93
2022-12-31T06:21:16.138Z,16.81
2022-12-31T06:22:16.137Z,16.80
2022-12-31T06:23:16.112Z,16.81
2022-12-31T06:24:16.137Z,16.82
2022-12-31T06:25:16.089Z,16.85
2022-12-31T06:26:16.070Z,16.88
2022-12-31T06:27:16.059Z,16.91
2022-12-31T06:28:20.078Z,17.00
2022-12-31T06:29:16.043Z,17.03
2022-12-31T06:30:16.017Z,16.98
2022-12-31T06:31:16.084Z,17.00
2022-12-31T06:32:16.003Z,17.01
2022-12-31T06:33:15.975Z,16.98
2022-12-31T06:34:15.971Z,16.98
2022-12-31T06:35:15.956Z,17.00
2022-12-31T06:36:15.940Z,17.12
2022-12-31T06:37:15.921Z,17.12
2022-12-31T06:38:15.910Z,17.04
2022-12-31T06:39:15.912Z,17.08
2022-12-31T06:40:15.916Z,17.01
2022-12-31T06:41:15.880Z,17.01
2022-12-31T06:42:15.860Z,16.98
2022-12-31T06:43:15.843Z,17.07
2022-12-31T06:44:15.831Z,17.11
2022-12-31T06:45:15.823Z,17.16
2022-12-31T06:46:15.868Z,17.15
2022-12-31T06:47:15.791Z,17.18
2022-12-31T06:48:15.780Z,17.19
2022-12-31T06:49:15.763Z,17.21
2022-12-31T06:50:15.752Z,17.22
2022-12-31T06:51:17.538Z,17.28
2022-12-31T06:52:15.726Z,17.31
2022-12-31T06:53:15.712Z,17.38
2022-12-31T06:54:15.697Z,17.48
2022-12-31T06:55:15.684Z,17.40
2022-12-31T06:56:15.696Z,17.44
2022-12-31T06:57:15.678Z,17.43
2022-12-31T06:58:15.644Z,17.41
2022-12-31T06:59:15.631Z,17.46
2022-12-31T07:00:15.614Z,17.49
2022-12-31T07:01:15.777Z,17.55
2022-12-31T07:02:15.707Z,17.51
2022-12-31T07:03:15.618Z,17.49
2022-12-31T07:04:15.578Z,17.52
2022-12-31T07:05:15.556Z,17.52
2022-12-31T07:06:15.541Z,17.48
2022-12-31T07:07:15.529Z,17.48
2022-12-31T07:08:15.515Z,17.54
2022-12-31T07:09:15.504Z,17.54
2022-12-31T07:10:15.489Z,17.61
2022-12-31T07:11:15.479Z,17.63
2022-12-31T07:12:15.490Z,17.62
2022-12-31T07:13:15.455Z,17.69
2022-12-31T07:14:15.442Z,17.70
2022-12-31T07:15:15.467Z,17.83
2022-12-31T07:16:15.506Z,17.92
2022-12-31T07:17:15.402Z,17.86
2022-12-31T07:18:15.401Z,17.83
2022-12-31T07:19:15.367Z,17.83
2022-12-31T07:20:15.361Z,17.81
2022-12-31T07:21:15.351Z,17.76
2022-12-31T07:22:15.331Z,17.73
2022-12-31T07:23:15.316Z,17.74
2022-12-31T07:24:15.307Z,17.74
2022-12-31T07:25:15.306Z,17.76
2022-12-31T07:26:15.275Z,17.74
2022-12-31T07:27:15.263Z,17.83
2022-12-31T07:28:15.279Z,17.86
2022-12-31T07:29:15.248Z,17.89
2022-12-31T07:30:15.233Z,17.89
2022-12-31T07:31:15.276Z,17.89
2022-12-31T07:32:15.205Z,17.91
2022-12-31T07:33:15.185Z,17.95
2022-12-31T07:34:15.171Z,17.88
2022-12-31T07:35:15.159Z,17.88
2022-12-31T07:36:15.149Z,17.86
2022-12-31T07:37:15.136Z,17.83
2022-12-31T07:38:15.121Z,17.86
2022-12-31T07:39:15.104Z,17.85
2022-12-31T07:40:15.101Z,17.80
2022-12-31T07:41:15.097Z,17.80
2022-12-31T07:42:15.071Z,17.86
2022-12-31T07:43:15.060Z,17.89
2022-12-31T07:44:15.062Z,17.89
2022-12-31T07:45:15.024Z,17.88
2022-12-31T07:46:15.057Z,17.86
2022-12-31T07:47:15.001Z,17.80
2022-12-31T07:48:14.988Z,17.83
2022-12-31T07:49:14.980Z,17.85
2022-12-31T07:50:14.975Z,17.81
2022-12-31T07:51:14.948Z,17.83
2022-12-31T07:52:14.937Z,17.81
2022-12-31T07:53:14.919Z,17.73
2022-12-31T07:54:14.915Z,17.76
2022-12-31T07:55:14.899Z,17.74
2022-12-31T07:56:14.883Z,17.80
2022-12-31T07:57:14.869Z,17.83
2022-12-31T07:58:14.858Z,17.86
2022-12-31T07:59:18.399Z,17.78
2022-12-31T08:00:16.862Z,17.74
2022-12-31T08:01:14.919Z,17.74
2022-12-31T08:02:14.991Z,17.74
2022-12-31T08:03:14.795Z,17.69
2022-12-31T08:04:14.781Z,17.76
2022-12-31T08:05:14.768Z,17.73
2022-12-31T08:06:14.757Z,17.73
2022-12-31T08:07:14.742Z,17.70
2022-12-31T08:08:14.760Z,17.71
2022-12-31T08:09:14.716Z,17.76
2022-12-31T08:10:17.975Z,17.78
2022-12-31T08:11:14.695Z,17.78
2022-12-31T08:12:14.687Z,17.76
2022-12-31T08:13:14.669Z,17.73
2022-12-31T08:14:14.670Z,17.74
2022-12-31T08:15:14.642Z,17.71
2022-12-31T08:16:14.708Z,17.81
2022-12-31T08:17:14.642Z,17.89
2022-12-31T08:18:14.609Z,17.88
2022-12-31T08:19:14.589Z,17.83
2022-12-31T08:20:14.586Z,17.83
2022-12-31T08:21:14.561Z,17.85
2022-12-31T08:22:14.548Z,17.86
2022-12-31T08:23:14.544Z,17.89
2022-12-31T08:24:14.543Z,17.91
2022-12-31T08:25:14.518Z,17.92
2022-12-31T08:26:14.497Z,17.91
2022-12-31T08:27:14.484Z,17.92
2022-12-31T08:28:14.473Z,17.91
2022-12-31T08:29:14.459Z,17.92
2022-12-31T08:30:14.450Z,17.88
2022-12-31T08:31:14.498Z,17.89
2022-12-31T08:32:14.441Z,17.88
2022-12-31T08:33:14.402Z,17.83
2022-12-31T08:34:14.393Z,17.80
2022-12-31T08:35:14.378Z,17.76
2022-12-31T08:36:14.373Z,17.78
2022-12-31T08:37:14.358Z,17.81
2022-12-31T08:38:14.340Z,17.77
2022-12-31T08:39:14.331Z,17.81
2022-12-31T08:40:14.323Z,17.83
2022-12-31T08:41:14.311Z,17.88
2022-12-31T08:42:14.291Z,17.88
2022-12-31T08:43:14.281Z,17.83
2022-12-31T08:44:14.264Z,17.81
2022-12-31T08:45:14.250Z,17.89
2022-12-31T08:46:14.331Z,17.91
2022-12-31T08:47:14.242Z,17.89
2022-12-31T08:48:14.242Z,17.94
2022-12-31T08:49:14.212Z,17.99
2022-12-31T08:50:14.189Z,17.98
2022-12-31T08:51:14.176Z,17.92
2022-12-31T08:52:14.161Z,17.92
2022-12-31T08:53:14.150Z,17.89
2022-12-31T08:54:14.145Z,17.89
2022-12-31T08:55:14.124Z,17.98
2022-12-31T08:56:14.111Z,18.01
2022-12-31T08:57:14.117Z,18.06
2022-12-31T08:58:14.086Z,18.09
2022-12-31T08:59:14.072Z,18.04
2022-12-31T09:00:14.085Z,18.01
2022-12-31T09:01:14.192Z,18.02
2022-12-31T09:02:14.075Z,18.04
2022-12-31T09:03:14.025Z,18.04
2022-12-31T09:04:14.100Z,18.01
2022-12-31T09:05:14.003Z,18.02
2022-12-31T09:06:13.983Z,18.02
2022-12-31T09:07:13.972Z,17.99
2022-12-31T09:08:13.961Z,17.96
2022-12-31T09:09:13.945Z,17.94
2022-12-31T09:10:13.938Z,17.96
2022-12-31T09:11:19.133Z,17.96
2022-12-31T09:12:13.911Z,17.96
2022-12-31T09:13:13.895Z,18.01
2022-12-31T09:14:13.880Z,18.02
2022-12-31T09:15:13.870Z,17.95
2022-12-31T09:16:13.936Z,17.96
2022-12-31T09:17:13.844Z,18.02
2022-12-31T09:18:13.829Z,18.07
2022-12-31T09:19:13.818Z,18.09
2022-12-31T09:20:13.843Z,18.11
2022-12-31T09:21:13.792Z,18.17
2022-12-31T09:22:13.783Z,18.19
2022-12-31T09:23:13.766Z,18.20
2022-12-31T09:24:13.763Z,18.26
2022-12-31T09:25:13.763Z,18.25
2022-12-31T09:26:13.728Z,18.26
2022-12-31T09:27:13.721Z,18.25
2022-12-31T09:28:13.704Z,18.20
2022-12-31T09:29:13.708Z,18.36
2022-12-31T09:30:13.684Z,18.29
2022-12-31T09:31:13.662Z,18.35
2022-12-31T09:32:13.662Z,18.29
2022-12-31T09:33:13.637Z,18.28
2022-12-31T09:34:13.629Z,18.32
2022-12-31T09:35:13.618Z,18.32
2022-12-31T09:36:13.629Z,18.33
2022-12-31T09:37:13.584Z,18.44
2022-12-31T09:38:13.580Z,18.41
2022-12-31T09:39:13.590Z,18.48
2022-12-31T09:40:13.541Z,18.50
2022-12-31T09:41:13.531Z,18.50
2022-12-31T09:42:13.514Z,18.51
2022-12-31T09:43:13.504Z,18.52
2022-12-31T09:44:13.484Z,18.45
2022-12-31T09:45:13.473Z,18.42
2022-12-31T09:46:13.539Z,18.42
2022-12-31T09:47:13.444Z,18.52
2022-12-31T09:48:13.429Z,18.48
2022-12-31T09:49:13.420Z,18.63
2022-12-31T09:50:13.404Z,18.62
2022-12-31T09:51:13.395Z,18.63
2022-12-31T09:52:13.405Z,18.66
2022-12-31T09:53:13.435Z,18.54
2022-12-31T09:54:13.363Z,18.65
2022-12-31T09:55:13.341Z,18.65
2022-12-31T09:56:13.324Z,18.62
2022-12-31T09:57:13.325Z,18.66
2022-12-31T09:58:13.304Z,18.72
2022-12-31T09:59:13.295Z,18.78
2022-12-31T10:00:13.281Z,18.85
2022-12-31T10:01:13.421Z,18.84
2022-12-31T10:02:13.488Z,18.95
2022-12-31T10:03:13.339Z,19.12
2022-12-31T10:04:13.224Z,19.46
2022-12-31T10:05:13.214Z,19.57
2022-12-31T10:06:13.199Z,19.70
2022-12-31T10:07:13.189Z,19.72
2022-12-31T10:08:13.205Z,19.84
2022-12-31T10:09:13.160Z,19.81
2022-12-31T10:10:13.144Z,19.68
2022-12-31T10:11:13.135Z,19.65
2022-12-31T10:12:13.123Z,19.77
2022-12-31T10:13:13.114Z,19.76
2022-12-31T10:14:13.094Z,19.72
2022-12-31T10:15:13.085Z,19.60
2022-12-31T10:16:13.065Z,19.87
2022-12-31T10:17:13.132Z,19.92
2022-12-31T10:18:13.043Z,20.06
2022-12-31T10:19:13.046Z,20.16
2022-12-31T10:20:13.022Z,20.18
2022-12-31T10:21:13.007Z,20.18
2022-12-31T10:22:12.991Z,20.06
2022-12-31T10:23:12.981Z,19.98
2022-12-31T10:24:13.020Z,20.03
2022-12-31T10:25:12.955Z,20.20
2022-12-31T10:26:12.943Z,20.29
2022-12-31T10:27:12.941Z,20.47
2022-12-31T10:28:12.916Z,20.18
2022-12-31T10:29:12.903Z,20.03
2022-12-31T10:30:12.902Z,19.86
2022-12-31T10:31:12.942Z,19.87
2022-12-31T10:32:12.865Z,19.94
2022-12-31T10:33:12.853Z,19.72
2022-12-31T10:34:12.838Z,19.68
2022-12-31T10:35:12.838Z,19.81
2022-12-31T10:36:12.812Z,19.77
2022-12-31T10:37:12.819Z,19.77
2022-12-31T10:38:12.787Z,19.70
2022-12-31T10:39:15.430Z,19.58
2022-12-31T10:40:12.783Z,19.49
2022-12-31T10:41:12.750Z,19.53
2022-12-31T10:42:12.736Z,19.55
2022-12-31T10:43:12.724Z,19.58
2022-12-31T10:44:12.709Z,19.50
2022-12-31T10:45:12.699Z,19.45
2022-12-31T10:46:16.235Z,19.39
2022-12-31T10:47:14.669Z,19.38
2022-12-31T10:48:12.658Z,19.31
2022-12-31T10:49:12.647Z,19.24
2022-12-31T10:50:12.629Z,19.18
2022-12-31T10:51:12.622Z,19.12
2022-12-31T10:52:12.613Z,19.12
2022-12-31T10:53:12.609Z,19.05
2022-12-31T10:54:12.578Z,18.95
2022-12-31T10:55:12.565Z,18.94
2022-12-31T10:56:12.579Z,19.00
2022-12-31T10:57:12.541Z,19.02
2022-12-31T10:58:12.529Z,18.98
2022-12-31T10:59:12.514Z,18.98
2022-12-31T11:01:12.653Z,19.07
2022-12-31T11:02:12.666Z,18.92
2022-12-31T11:03:12.497Z,18.90
2022-12-31T11:04:12.445Z,18.95
2022-12-31T11:05:12.433Z,19.02
2022-12-31T11:06:12.421Z,18.99
2022-12-31T11:07:12.402Z,18.99
2022-12-31T11:08:12.389Z,18.87
2022-12-31T11:09:12.390Z,18.84
2022-12-31T11:10:12.377Z,18.88
2022-12-31T11:11:12.351Z,18.92
2022-12-31T11:12:12.366Z,19.00
2022-12-31T11:13:12.325Z,18.92
2022-12-31T11:14:12.308Z,18.91
2022-12-31T11:15:12.298Z,18.90
2022-12-31T11:16:12.304Z,18.81
2022-12-31T11:17:12.272Z,18.85
2022-12-31T11:18:12.256Z,18.91
2022-12-31T11:19:12.250Z,18.84
2022-12-31T11:20:12.233Z,18.85
2022-12-31T11:21:12.220Z,18.91
2022-12-31T11:22:12.208Z,18.85
2022-12-31T11:23:12.196Z,18.81
2022-12-31T11:24:12.182Z,18.82
2022-12-31T11:25:12.171Z,18.90
2022-12-31T11:26:12.159Z,18.80
2022-12-31T11:27:12.144Z,18.87
2022-12-31T11:28:12.214Z,18.90
2022-12-31T11:29:12.114Z,18.91
2022-12-31T11:30:12.099Z,18.82
2022-12-31T11:31:12.154Z,18.75
2022-12-31T11:32:12.075Z,18.70
2022-12-31T11:33:12.064Z,18.72
2022-12-31T11:34:12.047Z,18.76
2022-12-31T11:35:12.045Z,18.78
2022-12-31T11:36:12.022Z,18.90
2022-12-31T11:37:12.016Z,18.87
2022-12-31T11:38:11.993Z,18.87
2022-12-31T11:39:11.997Z,18.99
2022-12-31T11:40:11.969Z,19.02
2022-12-31T11:41:11.965Z,19.12
2022-12-31T11:42:11.961Z,19.10
2022-12-31T11:43:11.937Z,19.17
2022-12-31T11:44:11.939Z,19.06
2022-12-31T11:45:11.914Z,19.12
2022-12-31T11:46:11.940Z,19.15
2022-12-31T11:47:11.883Z,19.21
2022-12-31T11:49:11.854Z,19.31
2022-12-31T11:50:11.902Z,19.46
2022-12-31T11:51:11.842Z,19.36
2022-12-31T11:52:11.818Z,19.36
2022-12-31T11:53:11.798Z,19.38
2022-12-31T11:54:11.786Z,19.43
2022-12-31T11:55:11.766Z,19.21
2022-12-31T11:56:11.751Z,19.35
2022-12-31T11:57:11.744Z,19.38
2022-12-31T11:58:11.732Z,19.46
2022-12-31T11:59:18.659Z,19.58
2022-12-31T12:00:13.838Z,19.73
2022-12-31T12:01:11.785Z,19.80
2022-12-31T12:02:11.675Z,19.86
2022-12-31T12:04:11.776Z,19.73
2022-12-31T12:05:11.800Z,19.70
2022-12-31T12:06:11.624Z,19.77
2022-12-31T12:07:11.612Z,19.67
2022-12-31T12:08:11.596Z,19.78
2022-12-31T12:09:11.587Z,19.88
2022-12-31T12:10:11.585Z,19.78
2022-12-31T12:11:11.558Z,19.81
2022-12-31T12:12:11.543Z,19.84
2022-12-31T12:13:11.531Z,19.80
2022-12-31T12:14:11.519Z,19.84
2022-12-31T12:15:11.505Z,19.91
2022-12-31T12:16:11.578Z,20.05
2022-12-31T12:17:11.487Z,19.96
2022-12-31T12:18:11.471Z,19.95
2022-12-31T12:19:11.456Z,19.94
2022-12-31T12:20:11.473Z,20.01
2022-12-31T12:21:11.438Z,20.13
2022-12-31T12:22:11.421Z,20.05
2022-12-31T12:23:11.401Z,20.21
2022-12-31T12:24:11.388Z,20.24
2022-12-31T12:25:11.378Z,20.17
2022-12-31T12:26:11.358Z,20.71
2022-12-31T12:27:11.351Z,21.00
2022-12-31T12:28:11.337Z,21.11
2022-12-31T12:29:11.328Z,21.44
2022-12-31T12:30:11.354Z,21.37
2022-12-31T12:31:11.316Z,21.06
2022-12-31T12:32:11.312Z,21.08
2022-12-31T12:33:11.275Z,21.56
2022-12-31T12:34:11.274Z,21.74
2022-12-31T12:35:11.250Z,21.62
2022-12-31T12:36:11.245Z,22.01
2022-12-31T12:37:11.223Z,22.44
2022-12-31T12:38:11.218Z,22.41
2022-12-31T12:39:11.201Z,22.11
2022-12-31T12:40:11.223Z,22.34
2022-12-31T12:41:11.175Z,22.44
2022-12-31T12:42:11.164Z,22.20
2022-12-31T12:43:11.149Z,21.79
2022-12-31T12:44:11.141Z,21.87
2022-12-31T12:45:11.125Z,21.47
2022-12-31T12:46:11.132Z,21.79
2022-12-31T12:47:11.173Z,22.20
2022-12-31T12:48:11.122Z,22.38
2022-12-31T12:49:11.072Z,22.45
2022-12-31T12:50:11.143Z,22.53
2022-12-31T12:51:11.047Z,22.57
2022-12-31T12:52:11.037Z,22.23
2022-12-31T12:53:11.022Z,21.83
2022-12-31T12:54:11.010Z,22.01
2022-12-31T12:55:10.996Z,22.23
2022-12-31T12:56:10.986Z,22.13
2022-12-31T12:57:10.973Z,22.48
2022-12-31T12:58:17.155Z,23.17